sensor_id;sensor_type;location;lat;lon;timestamp;temperature;humidity
67141;DHT22;54058;52.010;5.546;2023-10-19T00:00:22;11.00;94.70
67141;DHT22;54058;52.010;5.546;2023-10-19T00:02:51;11.10;95.00
67141;DHT22;54058;52.010;5.546;2023-10-19T00:05:20;11.10;94.80
67141;DHT22;54058;52.010;5.546;2023-10-19T00:07:46;11.10;94.80
67141;DHT22;54058;52.010;5.546;2023-10-19T00:10:12;11.10;95.20
67141;DHT22;54058;52.010;5.546;2023-10-19T00:12:41;11.20;95.20
67141;DHT22;54058;52.010;5.546;2023-10-19T00:15:09;11.20;95.10
67141;DHT22;54058;52.010;5.546;2023-10-19T00:17:36;11.20;94.90
67141;DHT22;54058;52.010;5.546;2023-10-19T00:20:05;11.20;95.00
67141;DHT22;54058;52.010;5.546;2023-10-19T00:22:51;11.30;95.00
67141;DHT22;54058;52.010;5.546;2023-10-19T00:25:18;11.30;95.40
67141;DHT22;54058;52.010;5.546;2023-10-19T00:27:44;11.30;95.40
67141;DHT22;54058;52.010;5.546;2023-10-19T00:30:11;11.40;95.40
67141;DHT22;54058;52.010;5.546;2023-10-19T00:32:36;11.40;95.30
67141;DHT22;54058;52.010;5.546;2023-10-19T00:35:05;11.40;95.10
67141;DHT22;54058;52.010;5.546;2023-10-19T00:37:46;11.40;95.00
67141;DHT22;54058;52.010;5.546;2023-10-19T00:40:13;11.50;96.10
67141;DHT22;54058;52.010;5.546;2023-10-19T00:43:02;11.40;95.50
67141;DHT22;54058;52.010;5.546;2023-10-19T00:45:28;11.50;95.50
67141;DHT22;54058;52.010;5.546;2023-10-19T00:47:54;11.50;95.40
67141;DHT22;54058;52.010;5.546;2023-10-19T00:50:20;11.50;95.80
67141;DHT22;54058;52.010;5.546;2023-10-19T00:52:48;11.50;96.10
67141;DHT22;54058;52.010;5.546;2023-10-19T00:55:18;11.60;95.70
67141;DHT22;54058;52.010;5.546;2023-10-19T00:57:48;11.60;96.10
67141;DHT22;54058;52.010;5.546;2023-10-19T01:00:16;11.60;95.80
67141;DHT22;54058;52.010;5.546;2023-10-19T01:02:59;11.60;95.90
67141;DHT22;54058;52.010;5.546;2023-10-19T01:05:26;11.70;96.00
67141;DHT22;54058;52.010;5.546;2023-10-19T01:07:58;11.70;96.10
67141;DHT22;54058;52.010;5.546;2023-10-19T01:10:28;11.70;95.90
67141;DHT22;54058;52.010;5.546;2023-10-19T01:12:54;11.80;95.70
67141;DHT22;54058;52.010;5.546;2023-10-19T01:15:22;11.80;95.80
67141;DHT22;54058;52.010;5.546;2023-10-19T01:17:54;11.80;95.80
67141;DHT22;54058;52.010;5.546;2023-10-19T01:20:24;11.90;96.00
67141;DHT22;54058;52.010;5.546;2023-10-19T01:23:03;11.90;96.10
67141;DHT22;54058;52.010;5.546;2023-10-19T01:28:09;12.00;96.10
67141;DHT22;54058;52.010;5.546;2023-10-19T01:30:38;12.00;96.00
67141;DHT22;54058;52.010;5.546;2023-10-19T01:33:04;12.00;96.30
67141;DHT22;54058;52.010;5.546;2023-10-19T01:35:41;12.10;96.20
67141;DHT22;54058;52.010;5.546;2023-10-19T01:38:25;12.10;96.30
67141;DHT22;54058;52.010;5.546;2023-10-19T01:40:51;12.10;96.30
67141;DHT22;54058;52.010;5.546;2023-10-19T01:43:17;12.20;96.30
67141;DHT22;54058;52.010;5.546;2023-10-19T01:46:05;12.20;96.30
67141;DHT22;54058;52.010;5.546;2023-10-19T01:48:40;12.20;96.30
67141;DHT22;54058;52.010;5.546;2023-10-19T01:51:07;12.20;96.30
67141;DHT22;54058;52.010;5.546;2023-10-19T01:53:37;12.30;96.40
67141;DHT22;54058;52.010;5.546;2023-10-19T01:56:06;12.30;96.40
67141;DHT22;54058;52.010;5.546;2023-10-19T01:58:35;12.30;96.40
67141;DHT22;54058;52.010;5.546;2023-10-19T02:01:08;12.30;96.50
67141;DHT22;54058;52.010;5.546;2023-10-19T02:03:41;12.40;97.00
67141;DHT22;54058;52.010;5.546;2023-10-19T02:06:11;12.50;96.80
67141;DHT22;54058;52.010;5.546;2023-10-19T02:08:52;12.50;96.80
67141;DHT22;54058;52.010;5.546;2023-10-19T02:11:22;12.50;96.80
67141;DHT22;54058;52.010;5.546;2023-10-19T02:13:50;12.60;96.80
67141;DHT22;54058;52.010;5.546;2023-10-19T02:16:17;12.50;96.80
67141;DHT22;54058;52.010;5.546;2023-10-19T02:18:45;12.60;96.80
67141;DHT22;54058;52.010;5.546;2023-10-19T02:21:11;12.60;96.90
67141;DHT22;54058;52.010;5.546;2023-10-19T02:23:40;12.70;96.90
67141;DHT22;54058;52.010;5.546;2023-10-19T02:26:08;12.60;97.00
67141;DHT22;54058;52.010;5.546;2023-10-19T02:28:33;12.70;97.10
67141;DHT22;54058;52.010;5.546;2023-10-19T02:31:05;12.70;97.20
67141;DHT22;54058;52.010;5.546;2023-10-19T02:33:47;12.80;97.20
67141;DHT22;54058;52.010;5.546;2023-10-19T02:36:17;12.80;97.20
67141;DHT22;54058;52.010;5.546;2023-10-19T02:38:48;12.80;97.20
67141;DHT22;54058;52.010;5.546;2023-10-19T02:41:18;12.80;97.20
67141;DHT22;54058;52.010;5.546;2023-10-19T02:43:45;12.90;97.30
67141;DHT22;54058;52.010;5.546;2023-10-19T02:46:26;12.90;97.40
67141;DHT22;54058;52.010;5.546;2023-10-19T02:48:52;12.90;97.50
67141;DHT22;54058;52.010;5.546;2023-10-19T02:51:17;13.00;97.50
67141;DHT22;54058;52.010;5.546;2023-10-19T02:53:45;13.00;97.50
67141;DHT22;54058;52.010;5.546;2023-10-19T02:56:15;13.00;97.60
67141;DHT22;54058;52.010;5.546;2023-10-19T02:58:46;13.00;97.70
67141;DHT22;54058;52.010;5.546;2023-10-19T03:01:19;13.00;97.70
67141;DHT22;54058;52.010;5.546;2023-10-19T03:03:50;13.00;97.80
67141;DHT22;54058;52.010;5.546;2023-10-19T03:06:21;13.00;97.90
67141;DHT22;54058;52.010;5.546;2023-10-19T03:08:48;13.10;97.90
67141;DHT22;54058;52.010;5.546;2023-10-19T03:11:25;13.10;97.90
67141;DHT22;54058;52.010;5.546;2023-10-19T03:13:51;13.10;97.90
67141;DHT22;54058;52.010;5.546;2023-10-19T03:16:21;13.10;98.00
67141;DHT22;54058;52.010;5.546;2023-10-19T03:18:47;13.20;98.10
67141;DHT22;54058;52.010;5.546;2023-10-19T03:21:13;13.20;98.10
67141;DHT22;54058;52.010;5.546;2023-10-19T03:23:39;13.20;98.20
67141;DHT22;54058;52.010;5.546;2023-10-19T03:26:06;13.20;98.20
67141;DHT22;54058;52.010;5.546;2023-10-19T03:28:51;13.20;98.30
67141;DHT22;54058;52.010;5.546;2023-10-19T03:31:21;13.30;98.40
67141;DHT22;54058;52.010;5.546;2023-10-19T03:33:49;13.30;98.40
67141;DHT22;54058;52.010;5.546;2023-10-19T03:36:20;13.30;98.30
67141;DHT22;54058;52.010;5.546;2023-10-19T03:38:46;13.30;98.40
67141;DHT22;54058;52.010;5.546;2023-10-19T03:41:12;13.40;99.80
67141;DHT22;54058;52.010;5.546;2023-10-19T03:43:38;13.40;98.70
67141;DHT22;54058;52.010;5.546;2023-10-19T03:46:06;13.40;98.50
67141;DHT22;54058;52.010;5.546;2023-10-19T03:48:45;13.40;98.50
67141;DHT22;54058;52.010;5.546;2023-10-19T03:51:12;13.40;98.60
67141;DHT22;54058;52.010;5.546;2023-10-19T03:53:39;13.40;98.60
67141;DHT22;54058;52.010;5.546;2023-10-19T03:56:09;13.40;98.60
67141;DHT22;54058;52.010;5.546;2023-10-19T03:58:37;13.40;98.70
67141;DHT22;54058;52.010;5.546;2023-10-19T04:01:04;13.40;98.80
67141;DHT22;54058;52.010;5.546;2023-10-19T04:03:30;13.40;98.70
67141;DHT22;54058;52.010;5.546;2023-10-19T04:05:56;13.40;98.80
67141;DHT22;54058;52.010;5.546;2023-10-19T04:08:26;13.40;98.80
67141;DHT22;54058;52.010;5.546;2023-10-19T04:10:52;13.50;99.00
67141;DHT22;54058;52.010;5.546;2023-10-19T04:13:36;13.50;99.00
67141;DHT22;54058;52.010;5.546;2023-10-19T04:16:02;13.50;99.00
67141;DHT22;54058;52.010;5.546;2023-10-19T04:18:28;13.50;99.10
67141;DHT22;54058;52.010;5.546;2023-10-19T04:20:54;13.50;99.30
67141;DHT22;54058;52.010;5.546;2023-10-19T04:23:21;13.50;99.10
67141;DHT22;54058;52.010;5.546;2023-10-19T04:25:47;13.50;99.20
67141;DHT22;54058;52.010;5.546;2023-10-19T04:28:13;13.50;99.20
67141;DHT22;54058;52.010;5.546;2023-10-19T04:30:39;13.50;99.20
67141;DHT22;54058;52.010;5.546;2023-10-19T04:33:05;13.60;99.30
67141;DHT22;54058;52.010;5.546;2023-10-19T04:35:35;13.60;99.30
67141;DHT22;54058;52.010;5.546;2023-10-19T04:38:03;13.60;99.20
67141;DHT22;54058;52.010;5.546;2023-10-19T04:40:29;13.50;99.20
67141;DHT22;54058;52.010;5.546;2023-10-19T04:42:55;13.50;99.20
67141;DHT22;54058;52.010;5.546;2023-10-19T04:45:20;13.50;99.10
67141;DHT22;54058;52.010;5.546;2023-10-19T04:47:50;13.50;99.10
67141;DHT22;54058;52.010;5.546;2023-10-19T04:50:18;13.40;99.10
67141;DHT22;54058;52.010;5.546;2023-10-19T04:52:44;13.40;99.20
67141;DHT22;54058;52.010;5.546;2023-10-19T04:55:09;13.30;99.10
67141;DHT22;54058;52.010;5.546;2023-10-19T04:57:35;13.30;99.20
67141;DHT22;54058;52.010;5.546;2023-10-19T05:00:01;13.30;99.30
67141;DHT22;54058;52.010;5.546;2023-10-19T05:02:27;13.30;99.30
67141;DHT22;54058;52.010;5.546;2023-10-19T05:04:52;13.30;99.30
67141;DHT22;54058;52.010;5.546;2023-10-19T05:07:21;13.30;99.30
67141;DHT22;54058;52.010;5.546;2023-10-19T05:09:47;13.30;99.40
67141;DHT22;54058;52.010;5.546;2023-10-19T05:12:16;13.30;99.50
67141;DHT22;54058;52.010;5.546;2023-10-19T05:14:43;13.30;99.50
67141;DHT22;54058;52.010;5.546;2023-10-19T05:17:09;13.30;99.60
67141;DHT22;54058;52.010;5.546;2023-10-19T05:19:36;13.30;99.70
67141;DHT22;54058;52.010;5.546;2023-10-19T05:22:04;13.30;99.60
67141;DHT22;54058;52.010;5.546;2023-10-19T05:24:31;13.30;99.70
67141;DHT22;54058;52.010;5.546;2023-10-19T05:26:57;13.30;99.70
67141;DHT22;54058;52.010;5.546;2023-10-19T05:29:23;13.30;99.80
67141;DHT22;54058;52.010;5.546;2023-10-19T05:31:54;13.30;99.80
67141;DHT22;54058;52.010;5.546;2023-10-19T05:34:23;13.40;99.90
67141;DHT22;54058;52.010;5.546;2023-10-19T05:36:50;13.40;99.90
67141;DHT22;54058;52.010;5.546;2023-10-19T05:39:17;13.40;99.90
67141;DHT22;54058;52.010;5.546;2023-10-19T05:41:43;13.50;99.90
67141;DHT22;54058;52.010;5.546;2023-10-19T05:44:09;13.50;99.90
67141;DHT22;54058;52.010;5.546;2023-10-19T05:46:34;13.50;99.90
67141;DHT22;54058;52.010;5.546;2023-10-19T05:49:01;13.50;99.90
67141;DHT22;54058;52.010;5.546;2023-10-19T05:51:32;13.60;99.90
67141;DHT22;54058;52.010;5.546;2023-10-19T05:53:58;13.60;99.90
67141;DHT22;54058;52.010;5.546;2023-10-19T05:56:30;13.60;99.90
67141;DHT22;54058;52.010;5.546;2023-10-19T05:58:57;13.60;99.90
67141;DHT22;54058;52.010;5.546;2023-10-19T06:01:23;13.60;99.90
67141;DHT22;54058;52.010;5.546;2023-10-19T06:03:49;13.70;99.90
67141;DHT22;54058;52.010;5.546;2023-10-19T06:06:16;13.70;99.90
67141;DHT22;54058;52.010;5.546;2023-10-19T06:08:41;13.70;99.90
67141;DHT22;54058;52.010;5.546;2023-10-19T06:11:07;13.70;99.90
67141;DHT22;54058;52.010;5.546;2023-10-19T06:13:33;13.70;99.90
67141;DHT22;54058;52.010;5.546;2023-10-19T06:15:58;13.70;99.90
67141;DHT22;54058;52.010;5.546;2023-10-19T06:18:24;13.80;99.90
67141;DHT22;54058;52.010;5.546;2023-10-19T06:20:50;13.80;99.90
67141;DHT22;54058;52.010;5.546;2023-10-19T06:23:17;13.80;99.90
67141;DHT22;54058;52.010;5.546;2023-10-19T06:25:44;13.80;99.90
67141;DHT22;54058;52.010;5.546;2023-10-19T06:28:10;13.80;99.90
67141;DHT22;54058;52.010;5.546;2023-10-19T06:30:36;13.80;99.90
67141;DHT22;54058;52.010;5.546;2023-10-19T06:33:02;13.90;99.90
67141;DHT22;54058;52.010;5.546;2023-10-19T06:35:32;13.80;99.90
67141;DHT22;54058;52.010;5.546;2023-10-19T06:37:59;13.90;99.90
67141;DHT22;54058;52.010;5.546;2023-10-19T06:40:25;13.90;99.90
67141;DHT22;54058;52.010;5.546;2023-10-19T06:42:54;13.90;99.90
67141;DHT22;54058;52.010;5.546;2023-10-19T06:45:21;13.90;99.90
67141;DHT22;54058;52.010;5.546;2023-10-19T06:47:49;13.90;99.90
67141;DHT22;54058;52.010;5.546;2023-10-19T06:50:19;13.90;99.90
67141;DHT22;54058;52.010;5.546;2023-10-19T06:52:46;13.90;99.90
67141;DHT22;54058;52.010;5.546;2023-10-19T06:55:13;13.90;99.90
67141;DHT22;54058;52.010;5.546;2023-10-19T06:57:43;13.90;99.90
67141;DHT22;54058;52.010;5.546;2023-10-19T07:00:12;14.00;99.90
67141;DHT22;54058;52.010;5.546;2023-10-19T07:02:43;13.90;99.90
67141;DHT22;54058;52.010;5.546;2023-10-19T07:05:15;13.90;99.90
67141;DHT22;54058;52.010;5.546;2023-10-19T07:07:47;14.00;99.90
67141;DHT22;54058;52.010;5.546;2023-10-19T07:10:14;14.00;99.90
67141;DHT22;54058;52.010;5.546;2023-10-19T07:12:46;14.00;99.90
67141;DHT22;54058;52.010;5.546;2023-10-19T07:15:12;14.00;99.90
67141;DHT22;54058;52.010;5.546;2023-10-19T07:17:45;14.00;99.90
67141;DHT22;54058;52.010;5.546;2023-10-19T07:20:12;14.00;99.90
67141;DHT22;54058;52.010;5.546;2023-10-19T07:22:51;14.10;99.90
67141;DHT22;54058;52.010;5.546;2023-10-19T07:25:17;14.10;99.90
67141;DHT22;54058;52.010;5.546;2023-10-19T07:27:50;14.10;99.90
67141;DHT22;54058;52.010;5.546;2023-10-19T07:30:17;14.10;99.90
67141;DHT22;54058;52.010;5.546;2023-10-19T07:32:47;14.10;99.90
67141;DHT22;54058;52.010;5.546;2023-10-19T07:35:17;14.10;99.90
67141;DHT22;54058;52.010;5.546;2023-10-19T07:37:42;14.10;99.90
67141;DHT22;54058;52.010;5.546;2023-10-19T07:40:10;14.20;99.90
67141;DHT22;54058;52.010;5.546;2023-10-19T07:42:39;14.20;99.90
67141;DHT22;54058;52.010;5.546;2023-10-19T07:45:06;14.20;99.90
67141;DHT22;54058;52.010;5.546;2023-10-19T07:47:34;14.30;99.90
67141;DHT22;54058;52.010;5.546;2023-10-19T07:50:00;14.20;99.90
67141;DHT22;54058;52.010;5.546;2023-10-19T07:52:28;14.30;99.90
67141;DHT22;54058;52.010;5.546;2023-10-19T07:54:54;14.30;99.90
67141;DHT22;54058;52.010;5.546;2023-10-19T07:57:22;14.30;99.90
67141;DHT22;54058;52.010;5.546;2023-10-19T07:59:48;14.30;99.90
67141;DHT22;54058;52.010;5.546;2023-10-19T08:02:14;14.30;99.90
67141;DHT22;54058;52.010;5.546;2023-10-19T08:04:39;14.40;99.90
67141;DHT22;54058;52.010;5.546;2023-10-19T08:07:05;14.40;99.90
67141;DHT22;54058;52.010;5.546;2023-10-19T08:09:30;14.40;99.90
67141;DHT22;54058;52.010;5.546;2023-10-19T08:12:00;14.40;99.90
67141;DHT22;54058;52.010;5.546;2023-10-19T08:14:27;14.40;99.90
67141;DHT22;54058;52.010;5.546;2023-10-19T08:16:53;14.40;99.90
67141;DHT22;54058;52.010;5.546;2023-10-19T08:19:19;14.50;99.90
67141;DHT22;54058;52.010;5.546;2023-10-19T08:21:46;14.50;99.90
67141;DHT22;54058;52.010;5.546;2023-10-19T08:24:12;14.50;99.90
67141;DHT22;54058;52.010;5.546;2023-10-19T08:26:42;14.50;99.90
67141;DHT22;54058;52.010;5.546;2023-10-19T08:29:08;14.60;99.90
67141;DHT22;54058;52.010;5.546;2023-10-19T08:31:41;14.60;99.90
67141;DHT22;54058;52.010;5.546;2023-10-19T08:34:08;14.70;99.90
67141;DHT22;54058;52.010;5.546;2023-10-19T08:36:37;14.80;99.90
67141;DHT22;54058;52.010;5.546;2023-10-19T08:39:07;14.80;99.90
67141;DHT22;54058;52.010;5.546;2023-10-19T08:41:37;14.90;99.90
67141;DHT22;54058;52.010;5.546;2023-10-19T08:44:04;14.90;99.90
67141;DHT22;54058;52.010;5.546;2023-10-19T08:46:44;15.00;99.90
67141;DHT22;54058;52.010;5.546;2023-10-19T08:49:15;15.00;99.90
67141;DHT22;54058;52.010;5.546;2023-10-19T08:51:46;15.10;99.90
67141;DHT22;54058;52.010;5.546;2023-10-19T08:54:13;15.20;99.90
67141;DHT22;54058;52.010;5.546;2023-10-19T08:56:40;15.20;99.90
67141;DHT22;54058;52.010;5.546;2023-10-19T08:59:07;15.20;99.90
67141;DHT22;54058;52.010;5.546;2023-10-19T09:01:33;15.40;99.90
67141;DHT22;54058;52.010;5.546;2023-10-19T09:04:01;15.30;99.90
67141;DHT22;54058;52.010;5.546;2023-10-19T09:06:27;15.40;99.90
67141;DHT22;54058;52.010;5.546;2023-10-19T09:08:56;15.50;99.90
67141;DHT22;54058;52.010;5.546;2023-10-19T09:11:23;15.50;99.90
67141;DHT22;54058;52.010;5.546;2023-10-19T09:13:51;15.50;99.90
67141;DHT22;54058;52.010;5.546;2023-10-19T09:16:19;15.60;99.90
67141;DHT22;54058;52.010;5.546;2023-10-19T09:18:46;15.70;99.90
67141;DHT22;54058;52.010;5.546;2023-10-19T09:21:18;15.80;99.90
67141;DHT22;54058;52.010;5.546;2023-10-19T09:23:55;15.90;99.90
67141;DHT22;54058;52.010;5.546;2023-10-19T09:26:22;16.00;99.90
67141;DHT22;54058;52.010;5.546;2023-10-19T09:28:49;16.00;99.90
67141;DHT22;54058;52.010;5.546;2023-10-19T09:31:16;16.10;99.90
67141;DHT22;54058;52.010;5.546;2023-10-19T09:33:43;16.10;99.90
67141;DHT22;54058;52.010;5.546;2023-10-19T09:36:10;16.20;99.90
67141;DHT22;54058;52.010;5.546;2023-10-19T09:38:46;16.30;99.90
67141;DHT22;54058;52.010;5.546;2023-10-19T09:41:20;16.40;99.90
67141;DHT22;54058;52.010;5.546;2023-10-19T09:43:50;16.50;99.90
67141;DHT22;54058;52.010;5.546;2023-10-19T09:46:26;16.60;99.90
67141;DHT22;54058;52.010;5.546;2023-10-19T09:48:54;16.70;99.90
67141;DHT22;54058;52.010;5.546;2023-10-19T09:51:21;16.70;99.90
67141;DHT22;54058;52.010;5.546;2023-10-19T09:54:11;16.80;99.90
67141;DHT22;54058;52.010;5.546;2023-10-19T09:56:41;16.80;99.90
67141;DHT22;54058;52.010;5.546;2023-10-19T10:02:13;16.90;99.90
67141;DHT22;54058;52.010;5.546;2023-10-19T10:04:39;17.00;99.90
67141;DHT22;54058;52.010;5.546;2023-10-19T10:07:07;17.00;99.90
67141;DHT22;54058;52.010;5.546;2023-10-19T10:09:36;17.00;99.90
67141;DHT22;54058;52.010;5.546;2023-10-19T10:15:00;17.10;99.90
67141;DHT22;54058;52.010;5.546;2023-10-19T10:17:37;17.20;99.90
67141;DHT22;54058;52.010;5.546;2023-10-19T10:22:40;17.30;99.90
67141;DHT22;54058;52.010;5.546;2023-10-19T10:25:25;17.30;99.90
67141;DHT22;54058;52.010;5.546;2023-10-19T10:27:53;17.40;99.90
67141;DHT22;54058;52.010;5.546;2023-10-19T10:30:20;17.40;99.90
67141;DHT22;54058;52.010;5.546;2023-10-19T10:32:47;17.50;99.90
67141;DHT22;54058;52.010;5.546;2023-10-19T10:38:03;17.60;99.90
67141;DHT22;54058;52.010;5.546;2023-10-19T10:40:45;17.60;99.90
67141;DHT22;54058;52.010;5.546;2023-10-19T10:43:12;17.60;99.90
67141;DHT22;54058;52.010;5.546;2023-10-19T10:45:38;17.60;99.90
67141;DHT22;54058;52.010;5.546;2023-10-19T10:48:04;17.60;99.90
67141;DHT22;54058;52.010;5.546;2023-10-19T10:50:29;17.60;99.90
67141;DHT22;54058;52.010;5.546;2023-10-19T10:52:55;17.60;99.90
67141;DHT22;54058;52.010;5.546;2023-10-19T10:55:24;17.60;99.90
67141;DHT22;54058;52.010;5.546;2023-10-19T10:57:52;17.60;99.90
67141;DHT22;54058;52.010;5.546;2023-10-19T11:00:20;17.60;99.90
67141;DHT22;54058;52.010;5.546;2023-10-19T11:03:03;17.60;99.90
67141;DHT22;54058;52.010;5.546;2023-10-19T11:05:30;17.70;99.90
67141;DHT22;54058;52.010;5.546;2023-10-19T11:10:35;17.90;99.90
67141;DHT22;54058;52.010;5.546;2023-10-19T11:13:07;18.00;99.90
67141;DHT22;54058;52.010;5.546;2023-10-19T11:15:37;18.10;99.90
67141;DHT22;54058;52.010;5.546;2023-10-19T11:18:05;18.30;99.90
67141;DHT22;54058;52.010;5.546;2023-10-19T11:20:33;18.40;99.90
67141;DHT22;54058;52.010;5.546;2023-10-19T11:22:58;18.50;99.90
67141;DHT22;54058;52.010;5.546;2023-10-19T11:25:28;18.50;99.90
67141;DHT22;54058;52.010;5.546;2023-10-19T11:27:55;18.50;99.90
67141;DHT22;54058;52.010;5.546;2023-10-19T11:30:24;18.50;99.90
67141;DHT22;54058;52.010;5.546;2023-10-19T11:32:51;18.50;99.90
67141;DHT22;54058;52.010;5.546;2023-10-19T11:35:26;18.60;99.90
67141;DHT22;54058;52.010;5.546;2023-10-19T11:37:55;18.60;99.90
67141;DHT22;54058;52.010;5.546;2023-10-19T11:40:22;18.70;99.90
67141;DHT22;54058;52.010;5.546;2023-10-19T11:42:52;18.70;99.90
67141;DHT22;54058;52.010;5.546;2023-10-19T11:45:18;18.80;99.90
67141;DHT22;54058;52.010;5.546;2023-10-19T11:47:44;18.80;99.90
67141;DHT22;54058;52.010;5.546;2023-10-19T11:50:11;18.90;99.90
67141;DHT22;54058;52.010;5.546;2023-10-19T11:52:45;18.90;99.90
67141;DHT22;54058;52.010;5.546;2023-10-19T11:55:15;18.80;99.90
67141;DHT22;54058;52.010;5.546;2023-10-19T11:57:42;18.70;99.90
67141;DHT22;54058;52.010;5.546;2023-10-19T12:00:13;18.70;99.90
67141;DHT22;54058;52.010;5.546;2023-10-19T12:02:49;18.60;99.90
67141;DHT22;54058;52.010;5.546;2023-10-19T12:05:15;18.60;99.90
67141;DHT22;54058;52.010;5.546;2023-10-19T12:07:41;18.60;99.90
67141;DHT22;54058;52.010;5.546;2023-10-19T12:10:10;18.60;99.90
67141;DHT22;54058;52.010;5.546;2023-10-19T12:12:36;18.50;99.90
67141;DHT22;54058;52.010;5.546;2023-10-19T12:15:06;18.40;99.90
67141;DHT22;54058;52.010;5.546;2023-10-19T12:17:32;18.40;99.90
67141;DHT22;54058;52.010;5.546;2023-10-19T12:19:58;18.40;99.90
67141;DHT22;54058;52.010;5.546;2023-10-19T12:22:24;18.40;99.90
67141;DHT22;54058;52.010;5.546;2023-10-19T12:24:54;18.50;99.90
67141;DHT22;54058;52.010;5.546;2023-10-19T12:27:20;18.40;99.90
67141;DHT22;54058;52.010;5.546;2023-10-19T12:29:45;18.40;99.90
67141;DHT22;54058;52.010;5.546;2023-10-19T12:32:12;18.40;99.90
67141;DHT22;54058;52.010;5.546;2023-10-19T12:34:40;18.40;99.90
67141;DHT22;54058;52.010;5.546;2023-10-19T12:37:06;18.40;99.90
67141;DHT22;54058;52.010;5.546;2023-10-19T12:39:35;18.40;99.90
67141;DHT22;54058;52.010;5.546;2023-10-19T12:42:01;18.40;99.90
67141;DHT22;54058;52.010;5.546;2023-10-19T12:44:27;18.30;99.90
67141;DHT22;54058;52.010;5.546;2023-10-19T12:46:55;18.30;99.90
67141;DHT22;54058;52.010;5.546;2023-10-19T12:49:22;18.20;99.90
67141;DHT22;54058;52.010;5.546;2023-10-19T12:51:52;18.20;99.90
67141;DHT22;54058;52.010;5.546;2023-10-19T12:54:18;18.20;99.90
67141;DHT22;54058;52.010;5.546;2023-10-19T12:56:44;18.10;99.90
67141;DHT22;54058;52.010;5.546;2023-10-19T12:59:10;18.10;99.90
67141;DHT22;54058;52.010;5.546;2023-10-19T13:01:36;18.10;99.90
67141;DHT22;54058;52.010;5.546;2023-10-19T13:04:02;18.00;99.90
67141;DHT22;54058;52.010;5.546;2023-10-19T13:06:39;18.00;99.90
67141;DHT22;54058;52.010;5.546;2023-10-19T13:09:05;18.00;99.90
67141;DHT22;54058;52.010;5.546;2023-10-19T13:11:34;17.90;99.90
67141;DHT22;54058;52.010;5.546;2023-10-19T13:14:00;17.90;99.90
67141;DHT22;54058;52.010;5.546;2023-10-19T13:16:26;17.80;99.90
67141;DHT22;54058;52.010;5.546;2023-10-19T13:18:53;17.80;99.90
67141;DHT22;54058;52.010;5.546;2023-10-19T13:21:19;17.70;99.90
67141;DHT22;54058;52.010;5.546;2023-10-19T13:23:51;17.70;99.90
67141;DHT22;54058;52.010;5.546;2023-10-19T13:26:17;17.60;99.90
67141;DHT22;54058;52.010;5.546;2023-10-19T13:28:47;17.50;99.90
67141;DHT22;54058;52.010;5.546;2023-10-19T13:31:14;17.50;99.90
67141;DHT22;54058;52.010;5.546;2023-10-19T13:33:40;17.40;99.90
67141;DHT22;54058;52.010;5.546;2023-10-19T13:36:07;17.40;99.90
67141;DHT22;54058;52.010;5.546;2023-10-19T13:38:33;17.40;99.90
67141;DHT22;54058;52.010;5.546;2023-10-19T13:40:59;17.40;99.90
67141;DHT22;54058;52.010;5.546;2023-10-19T13:43:29;17.40;99.90
67141;DHT22;54058;52.010;5.546;2023-10-19T13:45:55;17.40;99.90
67141;DHT22;54058;52.010;5.546;2023-10-19T13:48:21;17.40;99.90
67141;DHT22;54058;52.010;5.546;2023-10-19T13:50:48;17.40;99.90
67141;DHT22;54058;52.010;5.546;2023-10-19T13:53:15;17.50;99.90
67141;DHT22;54058;52.010;5.546;2023-10-19T13:55:41;17.50;99.90
67141;DHT22;54058;52.010;5.546;2023-10-19T13:58:07;17.60;99.90
67141;DHT22;54058;52.010;5.546;2023-10-19T14:00:32;17.60;99.90
67141;DHT22;54058;52.010;5.546;2023-10-19T14:03:07;17.60;99.90
67141;DHT22;54058;52.010;5.546;2023-10-19T14:05:39;17.60;99.90
67141;DHT22;54058;52.010;5.546;2023-10-19T14:08:22;17.60;99.90
67141;DHT22;54058;52.010;5.546;2023-10-19T14:10:48;17.60;99.90
67141;DHT22;54058;52.010;5.546;2023-10-19T14:13:14;17.50;99.90
67141;DHT22;54058;52.010;5.546;2023-10-19T14:15:40;17.60;99.90
67141;DHT22;54058;52.010;5.546;2023-10-19T14:18:08;17.50;99.90
67141;DHT22;54058;52.010;5.546;2023-10-19T14:20:34;17.50;99.90
67141;DHT22;54058;52.010;5.546;2023-10-19T14:23:01;17.40;99.90
67141;DHT22;54058;52.010;5.546;2023-10-19T14:25:36;17.40;99.90
67141;DHT22;54058;52.010;5.546;2023-10-19T14:28:03;17.40;99.90
67141;DHT22;54058;52.010;5.546;2023-10-19T14:30:32;17.40;99.90
67141;DHT22;54058;52.010;5.546;2023-10-19T14:32:58;17.30;99.90
67141;DHT22;54058;52.010;5.546;2023-10-19T14:35:24;17.30;99.90
67141;DHT22;54058;52.010;5.546;2023-10-19T14:37:55;17.30;99.90
67141;DHT22;54058;52.010;5.546;2023-10-19T14:40:23;17.20;99.90
67141;DHT22;54058;52.010;5.546;2023-10-19T14:42:50;17.20;99.90
67141;DHT22;54058;52.010;5.546;2023-10-19T14:45:20;17.20;99.90
67141;DHT22;54058;52.010;5.546;2023-10-19T14:47:47;17.30;99.90
67141;DHT22;54058;52.010;5.546;2023-10-19T14:50:14;17.20;99.90
67141;DHT22;54058;52.010;5.546;2023-10-19T14:52:41;17.20;99.90
67141;DHT22;54058;52.010;5.546;2023-10-19T14:55:08;17.20;99.90
67141;DHT22;54058;52.010;5.546;2023-10-19T14:57:36;17.20;99.90
67141;DHT22;54058;52.010;5.546;2023-10-19T15:00:09;17.10;99.90
67141;DHT22;54058;52.010;5.546;2023-10-19T15:02:49;17.10;99.90
67141;DHT22;54058;52.010;5.546;2023-10-19T15:05:19;17.10;99.90
67141;DHT22;54058;52.010;5.546;2023-10-19T15:07:49;17.10;99.90
67141;DHT22;54058;52.010;5.546;2023-10-19T15:10:24;17.00;99.90
67141;DHT22;54058;52.010;5.546;2023-10-19T15:12:51;17.00;99.90
67141;DHT22;54058;52.010;5.546;2023-10-19T15:15:17;16.90;99.90
67141;DHT22;54058;52.010;5.546;2023-10-19T15:17:44;16.90;99.90
67141;DHT22;54058;52.010;5.546;2023-10-19T15:20:12;16.90;99.90
67141;DHT22;54058;52.010;5.546;2023-10-19T15:22:40;16.80;99.90
67141;DHT22;54058;52.010;5.546;2023-10-19T15:25:06;16.80;99.90
67141;DHT22;54058;52.010;5.546;2023-10-19T15:27:37;16.80;99.90
67141;DHT22;54058;52.010;5.546;2023-10-19T15:30:04;16.70;99.90
67141;DHT22;54058;52.010;5.546;2023-10-19T15:32:37;16.70;99.90
67141;DHT22;54058;52.010;5.546;2023-10-19T15:35:03;16.70;99.90
67141;DHT22;54058;52.010;5.546;2023-10-19T15:37:29;16.70;99.90
67141;DHT22;54058;52.010;5.546;2023-10-19T15:39:55;16.60;99.90
67141;DHT22;54058;52.010;5.546;2023-10-19T15:42:21;16.60;99.90
67141;DHT22;54058;52.010;5.546;2023-10-19T15:44:47;16.60;99.90
67141;DHT22;54058;52.010;5.546;2023-10-19T15:47:13;16.70;99.90
67141;DHT22;54058;52.010;5.546;2023-10-19T15:50:01;16.70;99.90
67141;DHT22;54058;52.010;5.546;2023-10-19T15:52:28;16.70;99.90
67141;DHT22;54058;52.010;5.546;2023-10-19T15:54:54;16.70;99.90